createdAt,value
2019-06-20T00:00:25.095Z,65.34
2019-06-20T00:02:53.009Z,65.34
2019-06-20T00:05:20.715Z,65.68
2019-06-20T00:07:48.610Z,66.07
2019-06-20T00:10:16.692Z,66.39
2019-06-20T00:12:59.228Z,66.49
2019-06-20T00:15:13.829Z,67.06
2019-06-20T00:17:41.781Z,67.06
2019-06-20T00:20:09.440Z,68.34
2019-06-20T00:22:37.150Z,68.34
2019-06-20T00:25:05.287Z,69.41
2019-06-20T00:27:33.381Z,69.41
2019-06-20T00:30:00.965Z,69.54
2019-06-20T00:32:28.679Z,69.72
2019-06-20T00:34:56.342Z,69.72
2019-06-20T00:37:24.617Z,69.95
2019-06-20T00:39:52.226Z,69.95
2019-06-20T00:42:19.864Z,70.42
2019-06-20T00:44:48.013Z,70.94
2019-06-20T00:47:15.675Z,70.94
2019-06-20T00:49:43.336Z,71.05
2019-06-20T00:52:11.614Z,71.05
2019-06-20T00:54:39.686Z,71.11
2019-06-20T00:57:07.334Z,71.17
2019-06-20T00:59:34.885Z,71.72
2019-06-20T01:02:02.690Z,71.78
2019-06-20T01:04:30.522Z,72.11
2019-06-20T01:06:58.322Z,72.11
2019-06-20T01:09:25.871Z,72.00
2019-06-20T01:11:54.023Z,72.00
2019-06-20T01:14:21.702Z,71.93
2019-06-20T01:16:49.468Z,71.71
2019-06-20T01:19:17.001Z,71.62
2019-06-20T01:21:44.853Z,71.62
2019-06-20T01:24:12.439Z,72.21
2019-06-20T01:26:40.142Z,72.20
2019-06-20T01:29:07.881Z,72.34
2019-06-20T01:31:35.824Z,72.34
2019-06-20T01:34:03.514Z,72.12
2019-06-20T01:36:31.269Z,72.04
2019-06-20T01:38:59.034Z,71.98
2019-06-20T01:41:26.638Z,71.86
2019-06-20T01:43:54.359Z,71.76
2019-06-20T01:46:21.875Z,71.65
2019-06-20T01:48:49.575Z,71.49
2019-06-20T01:51:17.490Z,71.28
2019-06-20T01:53:45.053Z,71.09
2019-06-20T01:56:12.964Z,70.99
2019-06-20T01:58:40.621Z,70.96
2019-06-20T02:01:08.394Z,70.86
2019-06-20T02:03:35.969Z,70.78
2019-06-20T02:06:04.433Z,70.82
2019-06-20T02:08:32.507Z,70.88
2019-06-20T02:11:00.172Z,71.38
2019-06-20T02:13:28.362Z,71.38
2019-06-20T02:15:56.421Z,71.52
2019-06-20T02:18:24.070Z,71.52
2019-06-20T02:20:51.875Z,71.01
2019-06-20T02:23:19.499Z,71.01
2019-06-20T02:25:59.771Z,71.62
2019-06-20T02:28:27.521Z,71.38
2019-06-20T02:30:55.170Z,71.68
2019-06-20T02:33:22.865Z,72.04
2019-06-20T02:35:50.920Z,72.04
2019-06-20T02:38:18.618Z,71.90
2019-06-20T02:40:46.440Z,72.28
2019-06-20T02:43:14.417Z,72.28
2019-06-20T02:45:42.078Z,72.25
2019-06-20T02:48:09.751Z,72.01
2019-06-20T02:50:37.515Z,72.50
2019-06-20T02:53:05.475Z,72.50
2019-06-20T02:55:33.435Z,72.64
2019-06-20T02:58:01.108Z,72.64
2019-06-20T03:00:28.863Z,72.56
2019-06-20T03:02:57.249Z,72.53
2019-06-20T03:05:25.107Z,72.29
2019-06-20T03:07:52.773Z,72.29
2019-06-20T03:10:20.351Z,72.67
2019-06-20T03:12:47.989Z,72.95
2019-06-20T03:15:15.664Z,72.95
2019-06-20T03:17:43.419Z,72.51
2019-06-20T03:20:11.460Z,72.42
2019-06-20T03:22:39.059Z,72.36
2019-06-20T03:25:06.633Z,72.24
2019-06-20T03:27:34.277Z,72.24
2019-06-20T03:30:02.255Z,72.25
2019-06-20T03:32:29.904Z,72.25
2019-06-20T03:34:57.458Z,72.57
2019-06-20T03:37:25.239Z,72.30
2019-06-20T03:39:53.181Z,72.80
2019-06-20T03:42:20.762Z,72.80
2019-06-20T03:45:01.713Z,72.50
2019-06-20T03:47:18.114Z,72.50
2019-06-20T03:49:45.894Z,72.48
2019-06-20T03:52:13.549Z,72.43
2019-06-20T03:54:41.631Z,72.51
2019-06-20T03:57:09.599Z,72.62
2019-06-20T03:59:37.368Z,72.70
2019-06-20T04:02:05.038Z,72.70
2019-06-20T04:04:32.734Z,72.73
2019-06-20T04:07:00.645Z,72.71
2019-06-20T04:09:28.349Z,72.82
2019-06-20T04:11:55.980Z,72.82
2019-06-20T04:14:23.596Z,72.62
2019-06-20T04:16:51.497Z,72.62
2019-06-20T04:19:19.133Z,73.39
2019-06-20T04:21:46.737Z,73.39
2019-06-20T04:24:14.423Z,72.65
2019-06-20T04:26:42.555Z,73.33
2019-06-20T04:29:10.334Z,73.33
2019-06-20T04:31:38.099Z,72.72
2019-06-20T04:34:05.754Z,72.78
2019-06-20T04:36:33.676Z,72.78
2019-06-20T04:39:01.447Z,71.99
2019-06-20T04:41:29.259Z,72.63
2019-06-20T04:43:57.235Z,72.63
2019-06-20T04:46:30.505Z,72.56
2019-06-20T04:48:58.079Z,72.60
2019-06-20T04:51:25.634Z,72.46
2019-06-20T04:53:53.511Z,72.01
2019-06-20T04:56:21.276Z,71.62
2019-06-20T04:58:48.985Z,71.11
2019-06-20T05:01:16.589Z,71.11
2019-06-20T05:03:44.979Z,70.64
2019-06-20T05:06:12.731Z,70.71
2019-06-20T05:08:40.504Z,70.84
2019-06-20T05:11:08.166Z,70.61
2019-06-20T05:13:35.813Z,70.53
2019-06-20T05:16:03.478Z,70.53
2019-06-20T05:18:31.569Z,70.86
2019-06-20T05:20:59.107Z,70.86
2019-06-20T05:23:26.867Z,70.80
2019-06-20T05:25:54.632Z,71.51
2019-06-20T05:28:22.635Z,71.51
2019-06-20T05:30:50.290Z,71.48
2019-06-20T05:33:17.851Z,71.59
2019-06-20T05:35:45.967Z,71.76
2019-06-20T05:38:13.619Z,71.82
2019-06-20T05:40:41.249Z,71.82
2019-06-20T05:43:08.917Z,71.87
2019-06-20T05:45:36.928Z,71.93
2019-06-20T05:48:04.762Z,71.82
2019-06-20T05:50:32.487Z,71.95
2019-06-20T05:53:00.143Z,72.00
2019-06-20T05:55:28.160Z,71.86
2019-06-20T05:57:55.773Z,71.72
2019-06-20T06:00:23.438Z,71.55
2019-06-20T06:02:51.110Z,71.35
2019-06-20T06:07:58.475Z,71.33
2019-06-20T06:10:26.035Z,70.88
2019-06-20T06:12:53.835Z,70.76
2019-06-20T06:15:21.808Z,70.76
2019-06-20T06:17:49.559Z,70.84
2019-06-20T06:20:17.112Z,71.02
2019-06-20T06:22:46.235Z,71.58
2019-06-20T06:25:13.803Z,71.99
2019-06-20T06:27:41.546Z,72.72
2019-06-20T06:30:09.312Z,72.72
2019-06-20T06:32:40.429Z,72.72
2019-06-20T06:35:06.789Z,73.09
2019-06-20T06:37:34.383Z,73.09
2019-06-20T06:40:02.510Z,73.65
2019-06-20T06:42:30.293Z,73.85
2019-06-20T06:44:58.038Z,74.13
2019-06-20T06:47:25.814Z,74.39
2019-06-20T06:49:53.648Z,74.48
2019-06-20T06:52:21.344Z,74.53
2019-06-20T06:54:48.891Z,74.55
2019-06-20T06:57:16.808Z,74.50
2019-06-20T06:59:45.044Z,74.34
2019-06-20T07:02:12.665Z,73.83
2019-06-20T07:04:40.370Z,73.83
2019-06-20T07:07:07.928Z,73.35
2019-06-20T07:09:35.577Z,72.91
2019-06-20T07:12:03.517Z,72.50
2019-06-20T07:14:31.256Z,71.96
2019-06-20T07:17:00.553Z,71.69
2019-06-20T07:19:28.282Z,71.42
2019-06-20T07:21:56.371Z,71.08
2019-06-20T07:24:23.979Z,70.98
2019-06-20T07:26:51.571Z,70.62
2019-06-20T07:29:19.205Z,70.84
2019-06-20T07:31:47.210Z,70.93
2019-06-20T07:34:17.458Z,71.05
2019-06-20T07:36:44.995Z,71.33
2019-06-20T07:39:13.033Z,71.28
2019-06-20T07:41:40.927Z,71.78
2019-06-20T07:44:08.496Z,71.78
2019-06-20T07:46:36.054Z,71.50
2019-06-20T07:49:03.669Z,71.45
2019-06-20T07:51:31.779Z,71.05
2019-06-20T07:53:59.645Z,70.63
2019-06-20T07:56:27.203Z,70.25
2019-06-20T07:58:54.802Z,70.15
2019-06-20T08:01:22.808Z,70.24
2019-06-20T08:03:50.498Z,70.07
2019-06-20T08:06:18.248Z,70.07
2019-06-20T08:08:46.081Z,69.98
2019-06-20T08:11:14.089Z,69.80
2019-06-20T08:13:41.663Z,69.52
2019-06-20T08:16:09.629Z,69.11
2019-06-20T08:18:37.541Z,68.61
2019-06-20T08:21:05.113Z,68.10
2019-06-20T08:23:33.287Z,67.77
2019-06-20T08:26:00.937Z,67.41
2019-06-20T08:28:28.544Z,67.23
2019-06-20T08:30:57.737Z,67.13
2019-06-20T08:33:25.673Z,66.80
2019-06-20T08:35:53.272Z,66.57
2019-06-20T08:38:21.361Z,66.41
2019-06-20T08:40:48.913Z,66.39
2019-06-20T08:43:16.560Z,66.39
2019-06-20T08:45:44.746Z,66.03
2019-06-20T08:48:12.403Z,66.01
2019-06-20T08:50:39.954Z,65.63
2019-06-20T08:53:07.872Z,65.33
2019-06-20T08:55:35.461Z,64.94
2019-06-20T08:58:03.425Z,64.59
2019-06-20T09:00:31.338Z,64.59
2019-06-20T09:03:00.193Z,64.27
2019-06-20T09:05:30.437Z,64.52
2019-06-20T09:07:58.613Z,64.56
2019-06-20T09:10:26.495Z,64.24
2019-06-20T09:12:55.110Z,63.91
2019-06-20T09:15:22.768Z,63.71
2019-06-20T09:17:50.331Z,62.75
2019-06-20T09:20:18.195Z,62.75
2019-06-20T09:22:45.748Z,62.78
2019-06-20T09:25:13.746Z,62.26
2019-06-20T09:27:41.584Z,61.60
2019-06-20T09:30:09.319Z,61.07
2019-06-20T09:32:37.202Z,60.61
2019-06-20T09:35:05.169Z,59.75
2019-06-20T09:37:32.714Z,59.02
2019-06-20T09:40:00.676Z,58.83
2019-06-20T09:42:28.506Z,58.95
2019-06-20T09:44:56.413Z,59.07
2019-06-20T09:47:24.026Z,59.81
2019-06-20T09:49:55.203Z,59.81
2019-06-20T09:52:21.777Z,58.38
2019-06-20T09:54:50.150Z,58.38
2019-06-20T09:57:18.250Z,58.74
2019-06-20T09:59:59.113Z,59.49
2019-06-20T10:02:15.016Z,59.49
2019-06-20T10:04:43.046Z,59.82
2019-06-20T10:07:10.592Z,59.17
2019-06-20T10:09:38.261Z,58.81
2019-06-20T10:12:07.361Z,58.86
2019-06-20T10:14:35.208Z,59.03
2019-06-20T10:17:02.879Z,59.03
2019-06-20T10:19:30.707Z,59.00
2019-06-20T10:21:58.447Z,59.00
2019-06-20T10:24:26.006Z,58.76
2019-06-20T10:26:53.887Z,59.03
2019-06-20T10:29:21.444Z,59.56
2019-06-20T10:31:49.079Z,59.56
2019-06-20T10:34:16.920Z,59.21
2019-06-20T10:36:45.404Z,59.25
2019-06-20T10:39:13.731Z,59.52
2019-06-20T10:41:42.002Z,59.95
2019-06-20T10:44:09.973Z,60.29
2019-06-20T10:46:37.514Z,60.63
2019-06-20T10:49:05.522Z,60.36
2019-06-20T10:51:51.970Z,60.36
2019-06-20T10:54:20.097Z,60.52
2019-06-20T10:56:48.858Z,59.96
2019-06-20T10:59:16.486Z,59.34
2019-06-20T11:01:44.445Z,58.81
2019-06-20T11:04:12.004Z,58.37
2019-06-20T11:06:41.321Z,57.98
2019-06-20T11:09:08.804Z,57.34
2019-06-20T11:11:36.341Z,56.27
2019-06-20T11:14:04.281Z,56.14
2019-06-20T11:16:31.902Z,56.93
2019-06-20T11:18:59.445Z,56.93
2019-06-20T11:21:27.352Z,55.50
2019-06-20T11:23:54.965Z,54.55
2019-06-20T11:26:22.609Z,54.63
2019-06-20T11:28:50.439Z,55.07
2019-06-20T11:31:18.059Z,55.06
2019-06-20T11:33:45.634Z,55.06
2019-06-20T11:36:13.454Z,54.04
2019-06-20T11:38:42.467Z,52.12
2019-06-20T11:41:10.102Z,50.56
2019-06-20T11:43:38.428Z,51.12
2019-06-20T11:46:06.006Z,51.12
2019-06-20T11:48:34.239Z,51.36
2019-06-20T11:51:03.023Z,50.90
2019-06-20T11:53:32.080Z,50.90
2019-06-20T11:56:00.292Z,50.57
2019-06-20T11:58:28.288Z,51.18
2019-06-20T12:01:03.640Z,51.93
2019-06-20T12:03:25.203Z,52.80
2019-06-20T12:05:53.003Z,53.53
2019-06-20T12:08:20.610Z,54.08
2019-06-20T12:10:49.387Z,54.48
2019-06-20T12:13:17.330Z,54.84
2019-06-20T12:15:46.573Z,54.50
2019-06-20T12:18:14.374Z,53.28
2019-06-20T12:20:42.900Z,51.33
2019-06-20T12:23:10.400Z,49.52
2019-06-20T12:25:39.290Z,49.39
2019-06-20T12:28:07.574Z,51.04
2019-06-20T12:30:35.161Z,52.12
2019-06-20T12:33:02.711Z,53.37
2019-06-20T12:35:30.627Z,53.37
2019-06-20T12:37:58.237Z,53.83
2019-06-20T12:40:25.789Z,54.37
2019-06-20T12:42:53.671Z,54.80
2019-06-20T12:45:21.292Z,55.13
2019-06-20T12:47:49.977Z,55.22
2019-06-20T12:50:18.010Z,55.28
2019-06-20T12:52:47.527Z,55.50
2019-06-20T12:55:15.352Z,55.63
2019-06-20T12:57:44.181Z,55.62
2019-06-20T13:00:11.931Z,55.56
2019-06-20T13:02:40.465Z,55.46
2019-06-20T13:05:08.997Z,54.66
2019-06-20T13:07:38.606Z,54.66
2019-06-20T13:10:05.788Z,55.02
2019-06-20T13:12:33.653Z,53.55
2019-06-20T13:15:01.231Z,53.55
2019-06-20T13:17:28.852Z,53.37
2019-06-20T13:19:56.689Z,52.21
2019-06-20T13:22:24.464Z,52.21
2019-06-20T13:24:52.040Z,53.14
2019-06-20T13:27:19.972Z,53.31
2019-06-20T13:29:47.502Z,53.31
2019-06-20T13:32:15.036Z,53.97
2019-06-20T13:34:42.954Z,53.97
2019-06-20T13:37:10.485Z,53.38
2019-06-20T13:39:38.761Z,53.38
2019-06-20T13:42:07.807Z,52.84
2019-06-20T13:44:35.393Z,52.31
2019-06-20T13:47:02.887Z,51.88
2019-06-20T13:49:30.614Z,48.06
2019-06-20T13:51:58.578Z,48.06
2019-06-20T13:54:26.121Z,43.30
2019-06-20T13:56:54.069Z,43.30
2019-06-20T13:59:21.715Z,44.11
2019-06-20T14:01:49.248Z,44.52
2019-06-20T14:04:17.172Z,45.31
2019-06-20T14:06:45.462Z,46.85
2019-06-20T14:09:13.029Z,48.19
2019-06-20T14:11:41.820Z,50.28
2019-06-20T14:14:10.503Z,51.17
2019-06-20T14:16:38.030Z,51.17
2019-06-20T14:19:05.929Z,52.27
2019-06-20T14:21:33.485Z,53.24
2019-06-20T14:24:01.073Z,55.01
2019-06-20T14:26:28.900Z,55.01
2019-06-20T14:28:56.496Z,56.74
2019-06-20T14:31:24.063Z,56.28
2019-06-20T14:33:51.927Z,56.28
2019-06-20T14:36:19.490Z,57.75
2019-06-20T14:38:47.364Z,57.75
2019-06-20T14:41:14.970Z,58.46
2019-06-20T14:43:42.990Z,58.84
2019-06-20T14:46:12.023Z,59.05
2019-06-20T14:48:39.640Z,59.18
2019-06-20T14:51:07.254Z,60.19
2019-06-20T14:53:35.575Z,60.19
2019-06-20T14:56:03.168Z,60.47
2019-06-20T14:58:30.810Z,61.19
2019-06-20T15:00:58.921Z,61.94
2019-06-20T15:03:26.652Z,62.51
2019-06-20T15:05:54.637Z,62.95
2019-06-20T15:08:23.123Z,63.33
2019-06-20T15:10:51.790Z,63.55
2019-06-20T15:13:19.471Z,63.55
2019-06-20T15:15:47.844Z,64.06
2019-06-20T15:18:16.749Z,64.33
2019-06-20T15:20:45.170Z,64.42
2019-06-20T15:23:13.841Z,64.58
2019-06-20T15:25:41.379Z,64.15
2019-06-20T15:28:08.938Z,64.15
2019-06-20T15:30:36.804Z,64.58
2019-06-20T15:33:09.927Z,64.63
2019-06-20T15:35:33.987Z,64.42
2019-06-20T15:38:02.085Z,64.42
2019-06-20T15:40:29.735Z,63.96
2019-06-20T15:42:58.776Z,63.61
2019-06-20T15:45:27.010Z,63.61
2019-06-20T15:47:54.575Z,63.78
2019-06-20T15:50:22.177Z,63.85
2019-06-20T15:52:50.215Z,64.47
2019-06-20T15:55:18.149Z,64.50
2019-06-20T15:57:45.685Z,65.09
2019-06-20T16:00:13.772Z,65.09
2019-06-20T16:02:41.379Z,64.82
2019-06-20T16:05:08.960Z,64.73
2019-06-20T16:07:36.944Z,65.56
2019-06-20T16:10:04.496Z,65.56
2019-06-20T16:12:32.104Z,65.46
2019-06-20T16:15:00.145Z,65.51
2019-06-20T16:17:27.765Z,65.56
2019-06-20T16:19:55.295Z,65.56
2019-06-20T16:22:23.300Z,65.71
2019-06-20T16:24:51.299Z,65.75
2019-06-20T16:27:18.835Z,66.10
2019-06-20T16:29:46.895Z,66.10
2019-06-20T16:32:14.458Z,66.06
2019-06-20T16:34:42.082Z,65.92
2019-06-20T16:37:10.733Z,66.35
2019-06-20T16:39:38.679Z,65.93
2019-06-20T16:42:06.280Z,65.93
2019-06-20T16:44:34.323Z,66.46
2019-06-20T16:47:01.869Z,66.37
2019-06-20T16:49:29.509Z,66.47
2019-06-20T16:51:57.563Z,66.40
2019-06-20T16:54:25.183Z,66.92
2019-06-20T16:56:52.726Z,66.92
2019-06-20T16:59:20.764Z,66.28
2019-06-20T17:01:48.365Z,66.77
2019-06-20T17:04:15.963Z,66.77
2019-06-20T17:06:43.996Z,66.52
2019-06-20T17:09:11.739Z,66.59
2019-06-20T17:11:39.379Z,66.63
2019-06-20T17:14:07.372Z,66.66
2019-06-20T17:16:35.132Z,66.84
2019-06-20T17:19:02.883Z,66.84
2019-06-20T17:21:30.694Z,66.52
2019-06-20T17:23:58.257Z,66.28
2019-06-20T17:26:26.344Z,66.26
2019-06-20T17:28:54.232Z,66.45
2019-06-20T17:31:21.877Z,66.45
2019-06-20T17:33:57.502Z,67.00
2019-06-20T17:36:19.097Z,67.10
2019-06-20T17:38:46.702Z,67.06
2019-06-20T17:41:14.277Z,66.96
2019-06-20T17:43:42.436Z,66.87
2019-06-20T17:46:10.101Z,66.99
2019-06-20T17:48:37.725Z,66.99
2019-06-20T17:51:05.886Z,66.96
2019-06-20T17:53:33.514Z,66.94
2019-06-20T17:56:01.145Z,67.04
2019-06-20T17:58:29.272Z,67.25
2019-06-20T18:00:56.827Z,67.41
2019-06-20T18:03:24.503Z,67.53
2019-06-20T18:05:52.566Z,67.61
2019-06-20T18:08:20.244Z,67.66
2019-06-20T18:10:47.902Z,67.62
2019-06-20T18:13:15.601Z,67.58
2019-06-20T18:15:43.315Z,67.55
2019-06-20T18:18:11.323Z,67.57
2019-06-20T18:20:38.956Z,67.71
2019-06-20T18:23:06.657Z,67.81
2019-06-20T18:25:34.671Z,67.81
2019-06-20T18:28:02.398Z,68.29
2019-06-20T18:30:30.002Z,68.38
2019-06-20T18:32:58.169Z,68.38
2019-06-20T18:35:26.348Z,68.63
2019-06-20T18:37:54.024Z,68.71
2019-06-20T18:40:22.396Z,68.77
2019-06-20T18:42:50.008Z,68.81
2019-06-20T18:45:17.822Z,68.85
2019-06-20T18:47:45.911Z,68.90
2019-06-20T18:50:13.570Z,68.93
2019-06-20T18:52:51.501Z,68.88
2019-06-20T18:55:10.984Z,68.84
2019-06-20T18:57:38.991Z,68.48
2019-06-20T19:00:06.677Z,68.48
2019-06-20T19:02:34.651Z,68.92
2019-06-20T19:05:02.187Z,68.92
2019-06-20T19:07:29.794Z,68.78
2019-06-20T19:09:57.640Z,68.78
2019-06-20T19:12:25.184Z,68.29
2019-06-20T19:14:52.794Z,68.37
2019-06-20T19:17:21.007Z,68.37
2019-06-20T19:19:48.668Z,68.20
2019-06-20T19:22:17.616Z,68.24
2019-06-20T19:24:45.488Z,68.06
2019-06-20T19:27:13.064Z,68.11
2019-06-20T19:29:40.775Z,68.09
2019-06-20T19:32:08.659Z,68.09
2019-06-20T19:34:36.208Z,68.32
2019-06-20T19:37:03.897Z,68.34
2019-06-20T19:39:31.913Z,68.38
2019-06-20T19:41:59.613Z,68.43
2019-06-20T19:44:27.226Z,68.82
2019-06-20T19:46:55.201Z,68.22
2019-06-20T19:49:22.857Z,68.66
2019-06-20T19:51:50.641Z,68.79
2019-06-20T19:54:18.575Z,68.79
2019-06-20T19:56:46.168Z,68.72
2019-06-20T19:59:13.619Z,68.83
2019-06-20T20:01:41.518Z,68.96
2019-06-20T20:04:09.055Z,69.06
2019-06-20T20:06:36.623Z,69.08
2019-06-20T20:09:04.738Z,69.28
2019-06-20T20:11:32.354Z,68.90
2019-06-20T20:13:59.901Z,69.09
2019-06-20T20:16:27.763Z,69.09
2019-06-20T20:18:55.277Z,68.96
2019-06-20T20:21:22.897Z,68.92
2019-06-20T20:23:50.437Z,68.92
2019-06-20T20:26:18.232Z,68.92
2019-06-20T20:28:45.874Z,68.72
2019-06-20T20:31:13.421Z,68.72
2019-06-20T20:33:41.060Z,69.10
2019-06-20T20:36:21.190Z,68.50
2019-06-20T20:38:38.214Z,68.50
2019-06-20T20:41:05.824Z,68.77
2019-06-20T20:43:33.461Z,68.77
2019-06-20T20:46:01.228Z,68.75
2019-06-20T20:48:29.017Z,68.74
2019-06-20T20:50:56.959Z,68.84
2019-06-20T20:53:24.848Z,68.84
2019-06-20T20:55:52.486Z,68.64
2019-06-20T20:58:20.575Z,68.59
2019-06-20T21:00:48.154Z,68.24
2019-06-20T21:03:16.416Z,68.24
2019-06-20T21:05:51.343Z,68.75
2019-06-20T21:08:13.868Z,68.75
2019-06-20T21:10:41.630Z,68.02
2019-06-20T21:13:09.516Z,68.02
2019-06-20T21:15:37.686Z,68.48
2019-06-20T21:18:05.352Z,68.50
2019-06-20T21:20:33.456Z,68.96
2019-06-20T21:23:01.273Z,68.83
2019-06-20T21:25:32.066Z,68.72
2019-06-20T21:27:58.347Z,68.72
2019-06-20T21:30:26.349Z,68.31
2019-06-20T21:32:54.475Z,68.31
2019-06-20T21:35:22.349Z,68.57
2019-06-20T21:37:49.874Z,68.55
2019-06-20T21:40:17.824Z,68.53
2019-06-20T21:42:45.401Z,68.51
2019-06-20T21:45:13.001Z,68.50
2019-06-20T21:47:40.762Z,68.53
2019-06-20T21:50:08.739Z,68.55
2019-06-20T21:52:36.345Z,68.53
2019-06-20T21:55:04.050Z,68.50
2019-06-20T21:57:32.084Z,68.50
2019-06-20T21:59:59.605Z,68.52
2019-06-20T22:02:27.287Z,68.55
2019-06-20T22:04:54.999Z,68.61
2019-06-20T22:07:22.921Z,68.65
2019-06-20T22:09:50.642Z,68.83
2019-06-20T22:12:18.241Z,69.07
2019-06-20T22:14:45.858Z,69.27
2019-06-20T22:17:13.395Z,69.36
2019-06-20T22:19:41.089Z,69.44
2019-06-20T22:22:08.948Z,69.47
2019-06-20T22:24:36.941Z,69.47
2019-06-20T22:27:04.546Z,69.50
2019-06-20T22:29:32.755Z,69.46
2019-06-20T22:32:00.523Z,69.46
2019-06-20T22:34:28.209Z,69.46
2019-06-20T22:36:55.842Z,69.50
2019-06-20T22:39:23.941Z,69.57
2019-06-20T22:41:51.700Z,69.57
2019-06-20T22:44:19.415Z,69.71
2019-06-20T22:46:47.622Z,69.95
2019-06-20T22:49:15.280Z,69.95
2019-06-20T22:51:43.041Z,70.01
2019-06-20T22:54:10.714Z,70.01
2019-06-20T22:56:38.927Z,70.47
2019-06-20T22:59:07.126Z,70.69
2019-06-20T23:01:34.824Z,70.88
2019-06-20T23:04:02.480Z,71.03
2019-06-20T23:06:30.466Z,71.13
2019-06-20T23:08:58.219Z,71.26
2019-06-20T23:11:25.776Z,71.30
2019-06-20T23:13:53.431Z,71.35
2019-06-20T23:16:21.098Z,71.33
2019-06-20T23:18:49.190Z,71.32
2019-06-20T23:21:16.835Z,71.42
2019-06-20T23:23:44.819Z,71.45
2019-06-20T23:26:12.840Z,71.58
2019-06-20T23:28:40.646Z,71.58
2019-06-20T23:31:08.593Z,71.62
2019-06-20T23:33:36.573Z,71.67
2019-06-20T23:36:04.330Z,71.78
2019-06-20T23:38:31.891Z,71.89
2019-06-20T23:40:59.655Z,72.02
2019-06-20T23:43:27.725Z,72.16
2019-06-20T23:45:55.455Z,72.21
2019-06-20T23:48:23.053Z,72.29
2019-06-20T23:50:50.716Z,72.34
2019-06-20T23:53:22.410Z,72.36
2019-06-20T23:55:50.044Z,72.50
2019-06-20T23:58:18.110Z,72.50
